Time;durP1;ratioP1;P1;durP2;ratioP2;P2;SDS_P1;SDS_P2;PMS_P1;PMS_P2;Temp;Humidity;BMP_temperature;BMP_pressure;BME280_temperature;BME280_humidity;BME280_pressure;Samples;Min_cycle;Max_cycle;Signal;HPM_P1;HPM_P2
2023/07/29 00:01:12;;;;;;;4.40;4.00;;;22.90;99.90;;;;;;5100375;28;20338;-69
2023/07/29 00:03:39;;;;;;;4.78;4.38;;;22.90;99.90;;;;;;5111191;28;20240;-71
2023/07/29 00:06:05;;;;;;;4.47;4.07;;;22.90;99.90;;;;;;5110396;28;20627;-69
2023/07/29 00:08:32;;;;;;;4.03;3.65;;;22.80;99.90;;;;;;5110809;28;20235;-69
2023/07/29 00:10:59;;;;;;;4.90;4.45;;;22.90;99.90;;;;;;5110393;28;20311;-75
2023/07/29 00:13:28;;;;;;;4.43;3.97;;;22.90;99.90;;;;;;5110793;28;20659;-69
2023/07/29 00:15:55;;;;;;;4.30;3.83;;;22.90;99.90;;;;;;5110844;28;20240;-82
2023/07/29 00:18:23;;;;;;;4.70;4.30;;;22.90;99.90;;;;;;5110807;28;20208;-69
2023/07/29 00:20:50;;;;;;;4.03;3.70;;;22.80;99.90;;;;;;5110504;28;20204;-81
2023/07/29 00:23:18;;;;;;;5.38;4.20;;;22.80;99.90;;;;;;5110965;28;20211;-85
2023/07/29 00:25:45;;;;;;;5.30;4.53;;;22.80;99.90;;;;;;5095936;28;20664;-69
2023/07/29 00:28:13;;;;;;;4.25;3.85;;;22.80;99.90;;;;;;5110878;28;20240;-69
2023/07/29 00:30:41;;;;;;;4.63;4.22;;;22.80;99.90;;;;;;5110817;28;20244;-69
2023/07/29 00:33:08;;;;;;;4.82;4.43;;;22.80;99.90;;;;;;5110694;28;20259;-69
2023/07/29 00:35:36;;;;;;;5.95;4.93;;;22.80;99.90;;;;;;5110770;28;20233;-84
2023/07/29 00:38:03;;;;;;;7.65;4.65;;;22.70;99.90;;;;;;5110276;28;20236;-69
2023/07/29 00:40:31;;;;;;;6.57;4.28;;;22.70;99.90;;;;;;5110405;28;20209;-84
2023/07/29 00:42:58;;;;;;;4.60;4.20;;;22.70;99.90;;;;;;5110161;28;20209;-69
2023/07/29 00:45:27;;;;;;;7.22;4.63;;;22.70;99.90;;;;;;5110293;28;20236;-69
2023/07/29 00:47:56;;;;;;;4.70;4.30;;;22.60;99.90;;;;;;5105608;28;20233;-70
2023/07/29 00:50:23;;;;;;;4.57;4.25;;;22.50;99.90;;;;;;5102879;28;20267;-71
2023/07/29 00:52:51;;;;;;;5.45;4.18;;;22.50;99.90;;;;;;5113807;28;20240;-69
2023/07/29 00:55:18;;;;;;;5.13;4.63;;;22.50;99.90;;;;;;5114214;28;20232;-69
2023/07/29 00:57:48;;;;;;;5.20;4.70;;;22.50;99.90;;;;;;5113827;28;20208;-84
2023/07/29 01:00:15;;;;;;;6.05;4.53;;;22.40;99.90;;;;;;5113898;28;20254;-84
2023/07/29 01:02:43;;;;;;;6.38;4.75;;;22.50;99.90;;;;;;5113411;28;20213;-69
2023/07/29 01:05:13;;;;;;;5.35;4.95;;;22.40;99.90;;;;;;5113898;28;20224;-83
2023/07/29 01:07:47;;;;;;;4.47;4.10;;;22.40;99.90;;;;;;5113926;28;20666;-69
2023/07/29 01:10:23;;;;;;;5.28;4.57;;;22.50;99.90;;;;;;5113733;28;20208;-84
2023/07/29 01:12:55;;;;;;;5.43;4.22;;;22.40;99.90;;;;;;5113720;28;20252;-69
2023/07/29 01:15:27;;;;;;;5.00;4.60;;;22.40;99.90;;;;;;5099387;28;20711;-69
2023/07/29 01:17:57;;;;;;;4.95;4.55;;;22.30;99.90;;;;;;5113101;28;20263;-69
2023/07/29 01:20:26;;;;;;;4.75;4.32;;;22.30;99.90;;;;;;5113312;28;20236;-69
2023/07/29 01:22:53;;;;;;;4.75;4.35;;;22.30;99.90;;;;;;5113747;28;20244;-84
2023/07/29 01:25:21;;;;;;;6.13;5.22;;;22.20;99.90;;;;;;5113817;28;20649;-69
2023/07/29 01:27:52;;;;;;;5.47;4.00;;;22.20;99.90;;;;;;5085460;28;20623;-69
2023/07/29 01:30:19;;;;;;;7.47;4.85;;;22.30;99.90;;;;;;5113537;28;20209;-69
2023/07/29 01:32:53;;;;;;;5.25;4.75;;;22.30;99.90;;;;;;5112700;28;20256;-69
2023/07/29 01:35:25;;;;;;;4.90;4.40;;;22.20;99.90;;;;;;5113335;28;20236;-69
2023/07/29 01:37:56;;;;;;;3.95;3.65;;;22.20;99.90;;;;;;5113262;28;20220;-69
2023/07/29 01:40:27;;;;;;;5.68;5.20;;;22.20;99.90;;;;;;5113410;27;20237;-70
2023/07/29 01:42:54;;;;;;;6.03;5.50;;;22.20;99.90;;;;;;5100348;27;20248;-69
2023/07/29 01:45:24;;;;;;;7.28;4.65;;;22.10;99.90;;;;;;5111440;28;20628;-69
2023/07/29 01:47:52;;;;;;;4.32;4.03;;;22.00;99.90;;;;;;5112962;28;20215;-69
2023/07/29 01:50:18;;;;;;;5.57;5.07;;;22.10;99.90;;;;;;5113059;28;20223;-69
2023/07/29 01:52:45;;;;;;;4.47;4.15;;;22.20;99.90;;;;;;5112561;28;20264;-69
2023/07/29 01:55:12;;;;;;;5.80;5.30;;;22.20;99.90;;;;;;5112777;27;20248;-69
2023/07/29 01:57:41;;;;;;;5.07;4.57;;;22.20;99.90;;;;;;5112934;28;20672;-71
2023/07/29 02:00:09;;;;;;;5.45;5.00;;;22.20;99.90;;;;;;5112728;28;20255;-69
2023/07/29 02:02:35;;;;;;;4.70;4.28;;;22.10;99.90;;;;;;5112297;28;20232;-69
2023/07/29 02:05:02;;;;;;;5.25;4.85;;;21.80;99.90;;;;;;5112687;28;20240;-69
2023/07/29 02:07:29;;;;;;;4.65;4.15;;;21.80;99.90;;;;;;5112745;28;20201;-69
2023/07/29 02:09:56;;;;;;;5.07;4.60;;;21.70;99.90;;;;;;5112320;28;20236;-70
2023/07/29 02:12:23;;;;;;;5.72;5.13;;;21.70;99.90;;;;;;5112036;28;20319;-69
2023/07/29 02:14:51;;;;;;;5.05;4.65;;;21.60;99.90;;;;;;5112125;28;20676;-69
2023/07/29 02:17:18;;;;;;;6.15;5.55;;;21.60;99.90;;;;;;5112035;28;20244;-69
2023/07/29 02:19:46;;;;;;;4.30;4.00;;;21.40;99.90;;;;;;5112106;28;20579;-69
2023/07/29 02:22:14;;;;;;;7.25;5.25;;;21.30;99.90;;;;;;5112330;28;20296;-69
2023/07/29 02:24:42;;;;;;;7.45;5.47;;;21.40;99.90;;;;;;5112529;28;20200;-69
2023/07/29 02:27:09;;;;;;;5.85;4.50;;;21.50;99.90;;;;;;5112688;28;20232;-84
2023/07/29 02:29:36;;;;;;;5.20;4.70;;;21.50;99.90;;;;;;5099161;28;20263;-69
2023/07/29 02:32:05;;;;;;;5.50;5.00;;;21.50;99.90;;;;;;5093244;28;20256;-69
2023/07/29 02:34:32;;;;;;;5.82;4.38;;;21.50;99.90;;;;;;5100039;28;20258;-72
2023/07/29 02:36:59;;;;;;;5.28;4.68;;;21.30;99.90;;;;;;5094697;28;20241;-72
2023/07/29 02:39:26;;;;;;;4.93;3.92;;;21.30;99.90;;;;;;5094516;28;20252;-71
2023/07/29 02:41:53;;;;;;;5.43;4.72;;;21.40;99.90;;;;;;5091368;28;20685;-72
2023/07/29 02:44:20;;;;;;;5.10;4.68;;;21.40;99.90;;;;;;5095592;28;20205;-71
2023/07/29 02:46:47;;;;;;;5.28;4.85;;;21.40;99.90;;;;;;5104252;28;20248;-78
2023/07/29 02:49:15;;;;;;;5.72;5.22;;;21.40;99.90;;;;;;5091891;28;20260;-87
2023/07/29 02:51:42;;;;;;;4.82;4.40;;;21.40;99.90;;;;;;5091286;28;20247;-71
2023/07/29 02:54:09;;;;;;;5.30;4.80;;;21.50;99.90;;;;;;5091757;28;20256;-77
2023/07/29 02:56:36;;;;;;;5.65;4.05;;;21.50;99.90;;;;;;5091566;28;20248;-87
2023/07/29 02:59:03;;;;;;;5.50;4.90;;;21.50;99.90;;;;;;5109072;28;20664;-71
2023/07/29 03:01:29;;;;;;;5.55;5.05;;;21.40;99.90;;;;;;5111496;28;20251;-71
2023/07/29 03:03:56;;;;;;;5.10;4.70;;;21.40;99.90;;;;;;5103011;28;20241;-72
2023/07/29 03:06:25;;;;;;;4.70;4.10;;;21.40;99.90;;;;;;5091088;28;20252;-85
2023/07/29 03:08:52;;;;;;;6.18;5.25;;;21.30;99.90;;;;;;5107753;28;20309;-72
2023/07/29 03:11:19;;;;;;;4.53;4.15;;;21.20;99.90;;;;;;5111425;28;20688;-72
2023/07/29 03:13:46;;;;;;;5.10;4.63;;;21.20;99.90;;;;;;5110789;28;20232;-72
2023/07/29 03:16:15;;;;;;;4.97;4.57;;;21.30;99.90;;;;;;5111613;28;21074;-72
2023/07/29 03:18:43;;;;;;;4.15;3.85;;;21.40;99.90;;;;;;5111041;28;20255;-72
2023/07/29 03:21:11;;;;;;;5.20;4.70;;;21.30;99.90;;;;;;5111364;28;20209;-72
2023/07/29 03:23:39;;;;;;;5.30;4.90;;;21.30;99.90;;;;;;5111485;28;20248;-71
2023/07/29 03:26:10;;;;;;;5.15;4.75;;;21.40;99.90;;;;;;5111536;28;20236;-71
2023/07/29 03:28:38;;;;;;;5.05;4.55;;;21.30;99.90;;;;;;5111208;28;20205;-72
2023/07/29 03:31:05;;;;;;;5.60;5.10;;;21.30;99.90;;;;;;5111367;27;20205;-86
2023/07/29 03:33:32;;;;;;;5.50;4.82;;;21.30;99.90;;;;;;5110898;28;20285;-72
2023/07/29 03:35:59;;;;;;;5.18;4.68;;;21.40;99.90;;;;;;5111003;28;20254;-85
2023/07/29 03:38:26;;;;;;;5.03;4.63;;;21.30;99.90;;;;;;5100226;28;20241;-85
2023/07/29 03:40:54;;;;;;;5.07;4.28;;;21.30;99.90;;;;;;5098776;28;20248;-77
2023/07/29 03:43:21;;;;;;;5.28;4.78;;;21.30;99.90;;;;;;5111037;28;20205;-72
2023/07/29 03:45:48;;;;;;;5.72;5.25;;;21.20;99.90;;;;;;5110406;28;20663;-72
2023/07/29 03:48:15;;;;;;;6.65;5.45;;;21.20;99.90;;;;;;5105190;28;20297;-72
2023/07/29 03:50:42;;;;;;;6.13;5.63;;;21.20;99.90;;;;;;5111172;28;20243;-72
2023/07/29 03:53:09;;;;;;;6.10;5.57;;;21.10;99.90;;;;;;5082966;28;20656;-81
2023/07/29 03:55:37;;;;;;;5.80;5.22;;;21.10;99.90;;;;;;5111531;28;20679;-72
2023/07/29 03:58:05;;;;;;;4.97;4.47;;;21.10;99.90;;;;;;5110311;28;20664;-72
2023/07/29 04:00:32;;;;;;;6.25;5.40;;;21.00;99.90;;;;;;5110800;28;20726;-72
2023/07/29 04:02:59;;;;;;;5.80;5.30;;;21.00;99.90;;;;;;5110147;28;20232;-87
2023/07/29 04:05:26;;;;;;;5.05;4.65;;;21.10;99.90;;;;;;5112009;28;20248;-87
2023/07/29 04:07:53;;;;;;;6.30;5.65;;;20.80;99.90;;;;;;5111222;28;20247;-86
2023/07/29 04:10:20;;;;;;;8.00;5.45;;;20.80;99.90;;;;;;5111613;28;20676;-87
2023/07/29 04:12:47;;;;;;;4.97;4.55;;;20.80;99.90;;;;;;5110913;28;20285;-86
2023/07/29 04:15:16;;;;;;;5.13;4.65;;;20.80;99.90;;;;;;5111562;28;20248;-87
2023/07/29 04:17:42;;;;;;;4.70;4.30;;;20.80;99.90;;;;;;5111361;28;20284;-72
2023/07/29 04:20:11;;;;;;;5.30;4.80;;;20.80;99.90;;;;;;5111518;28;20228;-75
2023/07/29 04:22:38;;;;;;;5.22;4.78;;;20.70;99.90;;;;;;5111873;28;20244;-87
2023/07/29 04:25:06;;;;;;;5.57;5.07;;;20.80;99.90;;;;;;5112017;28;20281;-71
2023/07/29 04:27:33;;;;;;;5.75;4.78;;;20.80;99.90;;;;;;5114472;28;20306;-72
2023/07/29 04:30:00;;;;;;;4.82;4.43;;;20.80;99.90;;;;;;5113916;28;20240;-72
2023/07/29 04:32:28;;;;;;;5.45;4.80;;;20.80;99.90;;;;;;5114910;28;20278;-71
2023/07/29 04:34:55;;;;;;;5.38;4.93;;;20.80;99.90;;;;;;5114728;28;20205;-87
2023/07/29 04:37:22;;;;;;;5.75;4.30;;;20.80;99.90;;;;;;5112931;28;20232;-86
2023/07/29 04:39:49;;;;;;;5.45;4.97;;;20.60;99.90;;;;;;5094307;28;20237;-72
2023/07/29 04:42:15;;;;;;;5.07;4.63;;;20.70;99.90;;;;;;5096436;28;20237;-85
2023/07/29 04:44:43;;;;;;;6.88;4.85;;;20.80;99.90;;;;;;5107887;27;20700;-72
2023/07/29 04:47:10;;;;;;;5.25;4.68;;;20.80;99.90;;;;;;5106778;28;20301;-72
2023/07/29 04:49:38;;;;;;;4.95;4.47;;;20.80;99.90;;;;;;5114526;28;20232;-72
2023/07/29 04:52:06;;;;;;;5.20;4.80;;;20.90;99.90;;;;;;5114063;28;20290;-72
2023/07/29 04:54:33;;;;;;;5.13;4.63;;;20.90;99.90;;;;;;5113940;28;20243;-71
2023/07/29 04:57:00;;;;;;;5.32;4.82;;;20.80;99.90;;;;;;5113219;28;20291;-72
2023/07/29 04:59:27;;;;;;;5.55;5.05;;;20.80;99.90;;;;;;5114160;28;20240;-86
2023/07/29 05:01:54;;;;;;;4.68;4.25;;;20.80;99.90;;;;;;5113543;28;20244;-71
2023/07/29 05:04:21;;;;;;;5.05;4.47;;;20.80;99.90;;;;;;5113838;28;20265;-72
2023/07/29 05:06:50;;;;;;;5.43;4.88;;;20.70;99.90;;;;;;5113581;28;20236;-72
2023/07/29 05:09:19;;;;;;;6.00;5.40;;;20.60;99.90;;;;;;5113466;28;20197;-72
2023/07/29 05:11:47;;;;;;;5.45;4.95;;;20.70;99.90;;;;;;5113787;27;20208;-87
2023/07/29 05:14:15;;;;;;;5.95;5.07;;;20.70;99.90;;;;;;5113587;28;20289;-71
2023/07/29 05:16:41;;;;;;;5.30;4.80;;;20.70;99.90;;;;;;5113718;28;20588;-72
2023/07/29 05:19:08;;;;;;;5.50;5.00;;;20.60;99.90;;;;;;5106275;28;20233;-71
2023/07/29 05:21:35;;;;;;;6.53;5.82;;;20.70;99.90;;;;;;5114209;28;20251;-71
2023/07/29 05:24:04;;;;;;;5.30;4.82;;;20.80;99.90;;;;;;5113094;28;20247;-89
2023/07/29 05:26:31;;;;;;;5.63;4.95;;;20.90;99.90;;;;;;5113502;28;20240;-86
2023/07/29 05:28:58;;;;;;;4.93;4.43;;;21.00;99.90;;;;;;5113944;28;20244;-72
2023/07/29 05:31:25;;;;;;;6.00;5.00;;;21.00;99.90;;;;;;5113561;28;20240;-78
2023/07/29 05:33:52;;;;;;;6.13;4.93;;;21.10;99.90;;;;;;5113284;28;20731;-77
2023/07/29 05:36:18;;;;;;;6.25;5.50;;;21.20;99.90;;;;;;5112650;27;20251;-73
2023/07/29 05:38:45;;;;;;;6.10;5.60;;;21.20;99.90;;;;;;5098947;28;20245;-72
2023/07/29 05:41:14;;;;;;;5.65;4.55;;;21.20;99.90;;;;;;5103270;28;20664;-72
2023/07/29 05:43:43;;;;;;;6.32;5.72;;;21.20;99.90;;;;;;5113418;27;20633;-72
2023/07/29 05:46:09;;;;;;;10.90;5.13;;;21.10;99.90;;;;;;5113520;28;20236;-72
2023/07/29 05:48:36;;;;;;;5.97;5.43;;;21.20;99.90;;;;;;5113714;28;20236;-71
2023/07/29 05:51:05;;;;;;;5.32;4.90;;;21.10;99.90;;;;;;5112571;28;20244;-72
2023/07/29 05:53:32;;;;;;;4.88;4.47;;;21.10;99.90;;;;;;5112732;28;20591;-71
2023/07/29 05:55:58;;;;;;;6.90;5.15;;;21.20;99.90;;;;;;5112677;28;20243;-72
2023/07/29 05:58:27;;;;;;;6.38;5.78;;;21.30;99.90;;;;;;5112908;28;20639;-72
2023/07/29 06:00:54;;;;;;;8.15;5.45;;;21.40;99.90;;;;;;5112761;28;20252;-72
2023/07/29 06:03:21;;;;;;;5.18;4.47;;;21.60;99.90;;;;;;5112595;28;20265;-72
2023/07/29 06:05:47;;;;;;;5.20;4.80;;;21.70;99.90;;;;;;5112144;28;20244;-72
2023/07/29 06:08:14;;;;;;;5.85;4.80;;;21.80;99.90;;;;;;5112534;28;20680;-72
2023/07/29 06:10:41;;;;;;;7.10;6.20;;;21.70;99.90;;;;;;5112996;28;20232;-88
2023/07/29 06:13:08;;;;;;;5.70;4.93;;;21.80;99.90;;;;;;5113017;28;20256;-72
2023/07/29 06:15:36;;;;;;;5.05;4.55;;;21.80;99.90;;;;;;5112861;28;20244;-72
2023/07/29 06:18:03;;;;;;;5.43;4.72;;;21.90;99.90;;;;;;5112186;28;20644;-73
2023/07/29 06:20:30;;;;;;;4.60;4.18;;;22.00;99.90;;;;;;5112704;28;20240;-72
2023/07/29 06:22:57;;;;;;;5.32;4.43;;;22.10;99.90;;;;;;5111574;28;20706;-72
2023/07/29 06:25:24;;;;;;;7.05;5.28;;;22.20;99.90;;;;;;5112716;28;20267;-76
2023/07/29 06:27:51;;;;;;;5.38;4.68;;;22.30;99.90;;;;;;5111987;28;20240;-72
2023/07/29 06:30:18;;;;;;;5.07;4.47;;;22.30;99.90;;;;;;5112284;28;20240;-72
2023/07/29 06:32:46;;;;;;;4.75;4.20;;;22.30;99.90;;;;;;5111671;28;20315;-72
2023/07/29 06:35:13;;;;;;;5.07;4.63;;;22.50;99.90;;;;;;5112389;28;20230;-72
2023/07/29 06:37:40;;;;;;;5.78;4.93;;;22.60;99.90;;;;;;5107360;28;20229;-72
2023/07/29 06:40:08;;;;;;;6.38;5.18;;;22.60;99.90;;;;;;5109126;28;20209;-72
2023/07/29 06:42:36;;;;;;;7.10;4.28;;;22.60;99.90;;;;;;5112380;28;20197;-72
2023/07/29 06:45:04;;;;;;;5.60;5.10;;;22.60;99.90;;;;;;5111473;28;20208;-85
2023/07/29 06:47:31;;;;;;;5.30;4.28;;;22.50;99.90;;;;;;5096304;28;20240;-87
2023/07/29 06:50:00;;;;;;;6.45;5.05;;;22.60;99.90;;;;;;5112509;28;20228;-84
2023/07/29 06:52:27;;;;;;;5.60;5.03;;;22.80;99.90;;;;;;5112656;28;20204;-72
2023/07/29 06:54:54;;;;;;;6.00;5.35;;;22.90;99.90;;;;;;5111449;28;20278;-72
2023/07/29 06:57:21;;;;;;;6.30;5.70;;;23.00;99.90;;;;;;5111783;28;20240;-87
2023/07/29 06:59:48;;;;;;;5.88;4.70;;;22.70;99.90;;;;;;5102344;28;20672;-71
2023/07/29 07:02:15;;;;;;;7.72;5.45;;;23.00;99.90;;;;;;5104180;28;20668;-84
2023/07/29 07:04:42;;;;;;;5.38;4.97;;;23.50;99.90;;;;;;5111669;28;20243;-73
2023/07/29 07:07:10;;;;;;;5.07;4.68;;;23.70;99.90;;;;;;5111325;27;20511;-82
2023/07/29 07:09:37;;;;;;;4.90;4.45;;;23.80;99.90;;;;;;5094075;28;20681;-87
2023/07/29 07:12:04;;;;;;;4.45;4.15;;;23.80;99.90;;;;;;5091762;28;20209;-81
2023/07/29 07:14:31;;;;;;;5.30;4.90;;;23.80;99.90;;;;;;5091376;28;20272;-87
2023/07/29 07:16:58;;;;;;;5.03;4.32;;;23.70;99.90;;;;;;5090861;28;20248;-73
2023/07/29 07:19:25;;;;;;;5.45;4.95;;;23.70;99.90;;;;;;5091135;28;20703;-77
2023/07/29 07:21:52;;;;;;;5.65;5.18;;;23.80;99.90;;;;;;5096831;28;20244;-77
2023/07/29 07:24:20;;;;;;;5.05;4.55;;;23.80;99.90;;;;;;5111125;28;20237;-76
2023/07/29 07:26:47;;;;;;;5.85;5.43;;;24.20;99.90;;;;;;5110601;27;20248;-75
2023/07/29 07:29:14;;;;;;;5.50;5.10;;;24.50;99.90;;;;;;5111178;28;20232;-74
2023/07/29 07:31:41;;;;;;;5.50;4.97;;;24.50;99.90;;;;;;5111341;28;20215;-76
2023/07/29 07:34:08;;;;;;;5.63;5.10;;;24.40;99.90;;;;;;5106432;28;20660;-76
2023/07/29 07:36:35;;;;;;;4.88;4.38;;;24.50;99.90;;;;;;5101293;28;20204;-73
2023/07/29 07:39:02;;;;;;;5.65;4.78;;;24.70;99.90;;;;;;5094241;28;20248;-73
2023/07/29 07:41:30;;;;;;;5.30;4.85;;;24.60;99.90;;;;;;5089989;28;20596;-74
2023/07/29 07:43:57;;;;;;;6.88;4.88;;;24.60;99.90;;;;;;5090107;28;20680;-74
2023/07/29 07:46:24;;;;;;;4.47;4.18;;;24.70;99.90;;;;;;5092614;28;20240;-74
2023/07/29 07:48:51;;;;;;;4.65;4.25;;;24.80;99.90;;;;;;5109749;28;20707;-76
2023/07/29 07:51:18;;;;;;;5.43;4.93;;;25.00;99.90;;;;;;5110264;28;20243;-74
2023/07/29 07:53:45;;;;;;;6.10;4.88;;;25.30;99.90;;;;;;5098898;28;20267;-73
2023/07/29 07:56:12;;;;;;;5.03;4.53;;;25.20;99.90;;;;;;5096109;28;20209;-74
2023/07/29 07:58:40;;;;;;;5.05;4.60;;;25.20;99.90;;;;;;5090855;28;20228;-74
2023/07/29 08:01:08;;;;;;;5.15;4.75;;;25.20;99.90;;;;;;5093257;28;20680;-74
2023/07/29 08:03:35;;;;;;;5.45;5.05;;;25.30;99.90;;;;;;5092557;28;20245;-73
2023/07/29 08:06:02;;;;;;;7.28;5.20;;;25.20;99.90;;;;;;5093745;28;20734;-75
2023/07/29 08:08:29;;;;;;;5.50;5.00;;;25.20;99.90;;;;;;5093994;28;20259;-74
2023/07/29 08:10:58;;;;;;;5.55;5.13;;;25.30;99.90;;;;;;5094281;28;20237;-73
2023/07/29 08:13:26;;;;;;;4.65;4.25;;;25.20;99.90;;;;;;5094293;28;20237;-74
2023/07/29 08:15:54;;;;;;;9.82;4.72;;;25.30;99.90;;;;;;5093743;28;20201;-74
2023/07/29 08:18:21;;;;;;;5.15;4.75;;;25.70;99.90;;;;;;5094052;28;20689;-78
2023/07/29 08:20:57;;;;;;;4.47;4.07;;;25.80;99.90;;;;;;5088648;28;20703;-77
2023/07/29 08:23:25;;;;;;;4.53;4.13;;;26.00;99.90;;;;;;5098435;28;20208;-78
2023/07/29 08:25:54;;;;;;;5.93;4.45;;;26.10;99.90;;;;;;5093431;28;20719;-77
2023/07/29 08:28:21;;;;;;;4.78;4.38;;;26.20;99.90;;;;;;5091369;28;20688;-77
2023/07/29 08:30:48;;;;;;;4.75;4.35;;;26.30;99.90;;;;;;5091826;28;20768;-77
2023/07/29 08:33:16;;;;;;;4.72;3.90;;;26.40;99.90;;;;;;5093728;28;20263;-77
2023/07/29 08:35:43;;;;;;;4.47;4.15;;;26.60;99.90;;;;;;5093236;28;20245;-76
2023/07/29 08:38:10;;;;;;;4.85;4.40;;;26.50;99.90;;;;;;5094548;28;20248;-77
2023/07/29 08:40:42;;;;;;;4.47;4.07;;;26.50;99.90;;;;;;5090114;28;20684;-76
2023/07/29 08:43:12;;;;;;;5.40;4.35;;;26.50;99.90;;;;;;5094100;28;20237;-76
2023/07/29 08:45:40;;;;;;;4.25;3.78;;;26.70;99.90;;;;;;5093446;28;20720;-76
2023/07/29 08:48:11;;;;;;;4.70;4.30;;;26.70;99.90;;;;;;5093223;28;20201;-78
2023/07/29 08:50:40;;;;;;;5.30;4.90;;;27.00;99.90;;;;;;5093943;28;20294;-77
2023/07/29 08:53:07;;;;;;;5.35;4.82;;;27.10;99.90;;;;;;5093407;28;20255;-76
2023/07/29 08:55:34;;;;;;;5.00;4.60;;;27.70;99.90;;;;;;5105499;28;20313;-75
2023/07/29 08:58:02;;;;;;;5.68;4.28;;;27.80;99.90;;;;;;5090255;28;20233;-77
2023/07/29 09:00:29;;;;;;;4.25;3.85;;;27.50;99.90;;;;;;5093157;28;20652;-77
2023/07/29 09:03:02;;;;;;;5.43;4.20;;;27.50;99.90;;;;;;5092587;28;20233;-75
2023/07/29 09:05:29;;;;;;;5.13;4.18;;;27.70;99.90;;;;;;5093290;28;20426;-76
2023/07/29 09:07:57;;;;;;;5.93;3.78;;;27.70;99.90;;;;;;5092606;28;20639;-76
2023/07/29 09:10:27;;;;;;;4.65;4.25;;;27.90;99.90;;;;;;5093113;28;20304;-76
2023/07/29 09:12:54;;;;;;;4.70;3.85;;;28.10;99.90;;;;;;5092470;28;20212;-76
2023/07/29 09:15:29;;;;;;;3.78;3.47;;;28.30;99.90;;;;;;5092912;28;20271;-76
2023/07/29 09:17:57;;;;;;;4.07;3.35;;;28.50;99.90;;;;;;5092400;28;20216;-77
2023/07/29 09:20:27;;;;;;;4.90;4.50;;;28.60;99.90;;;;;;5093092;28;20204;-77
2023/07/29 09:22:58;;;;;;;4.20;3.90;;;28.60;99.90;;;;;;5092477;28;20205;-77
2023/07/29 09:25:26;;;;;;;3.78;3.47;;;29.80;99.90;;;;;;5100358;28;20209;-76
2023/07/29 09:27:53;;;;;;;3.88;3.58;;;33.30;99.90;;;;;;5092611;28;20233;-76
2023/07/29 09:30:20;;;;;;;3.80;3.50;;;33.80;99.90;;;;;;5092678;28;20197;-77
2023/07/29 09:32:47;;;;;;;3.40;3.10;;;34.00;99.90;;;;;;5092307;28;20236;-77
2023/07/29 09:35:14;;;;;;;3.97;3.58;;;35.50;99.90;;;;;;5094504;28;20254;-76
2023/07/29 09:37:41;;;;;;;5.40;3.42;;;34.20;99.90;;;;;;5096629;28;20227;-77
2023/07/29 09:40:16;;;;;;;4.47;4.05;;;36.40;99.90;;;;;;5092962;28;20208;-77
2023/07/29 09:42:50;;;;;;;3.85;3.58;;;37.10;99.90;;;;;;5091367;28;20208;-77
2023/07/29 09:45:24;;;;;;;3.00;2.80;;;35.80;99.90;;;;;;5092547;28;20207;-76
2023/07/29 09:47:52;;;;;;;3.50;3.20;;;35.90;99.90;;;;;;5091868;28;20688;-77
2023/07/29 09:50:19;;;;;;;3.58;3.30;;;39.60;99.90;;;;;;5092519;28;20251;-76
2023/07/29 09:52:48;;;;;;;3.67;3.28;;;41.20;99.90;;;;;;5089018;28;20236;-77
2023/07/29 09:55:19;;;;;;;3.80;3.45;;;43.50;99.90;;;;;;5092469;28;20236;-76
2023/07/29 09:57:46;;;;;;;4.43;3.38;;;41.60;99.90;;;;;;5091796;28;20747;-77
2023/07/29 10:00:13;;;;;;;3.53;3.22;;;42.30;99.90;;;;;;5091822;28;20248;-77
2023/07/29 10:02:41;;;;;;;3.45;3.25;;;44.00;99.90;;;;;;5091948;28;20237;-78
2023/07/29 10:05:09;;;;;;;3.20;2.90;;;44.60;99.90;;;;;;5092218;28;20243;-77
2023/07/29 10:07:38;;;;;;;3.72;3.42;;;44.60;99.90;;;;;;5092648;28;20201;-78
2023/07/29 10:10:06;;;;;;;4.57;3.17;;;44.90;99.90;;;;;;5091741;28;20251;-77
2023/07/29 10:12:35;;;;;;;4.97;3.45;;;42.50;99.90;;;;;;5083791;28;20694;-78
2023/07/29 10:15:04;;;;;;;2.95;2.78;;;45.20;99.90;;;;;;5091074;28;20260;-77
2023/07/29 10:17:31;;;;;;;3.90;3.28;;;45.50;99.90;;;;;;5091657;28;20240;-78
2023/07/29 10:19:59;;;;;;;4.97;3.40;;;46.90;99.90;;;;;;5091332;28;20200;-77
2023/07/29 10:22:29;;;;;;;2.97;2.78;;;45.60;99.90;;;;;;5090797;28;20248;-79
2023/07/29 10:25:04;;;;;;;3.88;3.58;;;45.40;99.90;;;;;;5091434;28;20657;-78
2023/07/29 10:27:34;;;;;;;3.83;3.35;;;46.00;99.90;;;;;;5091684;28;20578;-77
2023/07/29 10:30:03;;;;;;;3.83;3.45;;;46.00;99.90;;;;;;5090789;28;20232;-75
2023/07/29 10:32:32;;;;;;;3.42;3.22;;;41.50;99.90;;;;;;5091472;28;20658;-77
2023/07/29 10:34:59;;;;;;;3.65;3.22;;;37.10;99.90;;;;;;5091227;28;20260;-76
2023/07/29 10:37:26;;;;;;;3.97;3.67;;;34.90;99.90;;;;;;5091548;28;20236;-76
2023/07/29 10:39:54;;;;;;;4.22;3.83;;;33.30;99.90;;;;;;5091176;28;20237;-77
2023/07/29 10:42:21;;;;;;;3.70;3.40;;;32.60;99.90;;;;;;5091319;28;20201;-76
2023/07/29 10:44:53;;;;;;;4.32;3.55;;;32.60;99.90;;;;;;5090639;28;20232;-76
2023/07/29 10:47:24;;;;;;;4.15;3.60;;;32.10;99.90;;;;;;5091051;28;20235;-77
2023/07/29 10:49:54;;;;;;;4.72;4.32;;;32.20;99.90;;;;;;5090696;28;20684;-77
2023/07/29 10:52:32;;;;;;;21.33;4.25;;;32.10;99.90;;;;;;5091194;28;20209;-77
2023/07/29 10:55:00;;;;;;;4.10;3.70;;;31.90;99.90;;;;;;5083731;28;20264;-85
2023/07/29 10:57:35;;;;;;;4.43;4.13;;;31.90;99.90;;;;;;5091292;28;20236;-80
2023/07/29 11:00:02;;;;;;;3.85;3.55;;;31.30;99.90;;;;;;5084006;28;20598;-85
2023/07/29 11:02:32;;;;;;;3.95;3.65;;;31.30;99.90;;;;;;5091532;28;20631;-86
2023/07/29 11:05:00;;;;;;;3.70;3.40;;;30.80;99.90;;;;;;5091584;28;20270;-74
2023/07/29 11:07:28;;;;;;;5.57;4.10;;;31.10;99.90;;;;;;5091329;28;20236;-73
2023/07/29 11:10:00;;;;;;;4.18;3.85;;;31.40;99.90;;;;;;5091221;28;20243;-84
2023/07/29 11:12:45;;;;;;;4.82;4.43;;;31.80;99.90;;;;;;5091024;28;20200;-91
2023/07/29 11:15:21;;;;;;;4.32;4.03;;;31.90;99.90;;;;;;5091505;28;20642;-82
2023/07/29 11:17:51;;;;;;;4.18;3.78;;;31.90;99.90;;;;;;5091348;28;20251;-75
2023/07/29 11:20:19;;;;;;;3.80;3.50;;;32.00;99.90;;;;;;5091230;28;20251;-74
2023/07/29 11:22:47;;;;;;;4.50;4.10;;;32.00;99.90;;;;;;5102848;28;20263;-81
2023/07/29 11:25:16;;;;;;;3.70;3.42;;;32.10;99.90;;;;;;5104680;28;20654;-90
2023/07/29 11:27:43;;;;;;;4.47;4.18;;;31.70;99.90;;;;;;5109954;28;20206;-73
2023/07/29 11:30:12;;;;;;;5.35;4.13;;;31.80;99.90;;;;;;5098009;28;20208;-73
2023/07/29 11:32:40;;;;;;;4.80;4.03;;;32.00;99.90;;;;;;5091604;28;20201;-83
2023/07/29 11:35:10;;;;;;;4.47;4.07;;;32.10;99.90;;;;;;5085860;28;20324;-79
2023/07/29 11:37:38;;;;;;;4.00;3.70;;;31.90;99.90;;;;;;5088142;28;20201;-80
2023/07/29 11:40:06;;;;;;;4.20;3.90;;;32.00;99.90;;;;;;5091244;28;20229;-83
2023/07/29 11:42:34;;;;;;;5.07;4.25;;;32.20;99.90;;;;;;5090561;28;20240;-86
2023/07/29 11:45:01;;;;;;;4.05;3.65;;;32.20;99.90;;;;;;5090681;28;20682;-87
2023/07/29 11:47:28;;;;;;;6.32;4.45;;;32.20;99.90;;;;;;5090615;28;20572;-79
2023/07/29 11:49:59;;;;;;;4.53;4.13;;;32.20;99.90;;;;;;5090802;28;20228;-77
2023/07/29 11:52:28;;;;;;;6.13;4.32;;;32.50;99.90;;;;;;5090996;28;20232;-73
2023/07/29 11:54:55;;;;;;;6.63;4.38;;;32.50;99.90;;;;;;5078124;28;20311;-76
2023/07/29 11:57:22;;;;;;;5.25;4.75;;;32.20;99.90;;;;;;5090914;28;20205;-80
2023/07/29 11:59:50;;;;;;;6.47;4.97;;;32.20;99.90;;;;;;5090193;28;20240;-81
2023/07/29 12:02:18;;;;;;;4.72;4.38;;;32.40;99.90;;;;;;5091139;28;20243;-91
2023/07/29 12:04:47;;;;;;;4.60;4.20;;;32.50;99.90;;;;;;5090768;28;20232;-84
2023/07/29 12:07:15;;;;;;;5.20;4.68;;;32.60;99.90;;;;;;5091290;28;20232;-86
2023/07/29 12:09:44;;;;;;;4.65;4.25;;;32.40;99.90;;;;;;5090818;28;20197;-83
2023/07/29 12:12:11;;;;;;;5.05;4.25;;;32.30;99.90;;;;;;5091218;28;20236;-89
2023/07/29 12:14:38;;;;;;;3.95;3.65;;;32.40;99.90;;;;;;5091432;28;20240;-90
2023/07/29 12:17:06;;;;;;;4.65;4.25;;;32.50;99.90;;;;;;5090572;28;20247;-89
2023/07/29 12:19:34;;;;;;;5.35;4.95;;;32.60;99.90;;;;;;5090901;28;20240;-76
2023/07/29 12:22:02;;;;;;;4.65;4.28;;;32.30;99.90;;;;;;5090070;28;20200;-77
2023/07/29 12:24:30;;;;;;;4.15;3.85;;;32.30;99.90;;;;;;5090628;28;20240;-92
2023/07/29 12:26:59;;;;;;;4.82;4.43;;;32.10;99.90;;;;;;5089923;28;20669;-75
2023/07/29 12:29:26;;;;;;;5.10;4.65;;;32.10;99.90;;;;;;5090558;28;20672;-72
2023/07/29 12:31:59;;;;;;;4.43;4.03;;;32.40;99.90;;;;;;5094472;28;20232;-72
2023/07/29 12:34:28;;;;;;;4.80;4.40;;;32.60;99.90;;;;;;5110082;28;20204;-73
2023/07/29 12:36:56;;;;;;;5.13;4.68;;;32.60;99.90;;;;;;5103903;28;20599;-87
2023/07/29 12:39:24;;;;;;;4.15;3.85;;;32.40;99.90;;;;;;5090223;28;20209;-73
2023/07/29 12:41:52;;;;;;;5.45;4.43;;;32.60;99.90;;;;;;5090459;28;20240;-75
2023/07/29 12:44:21;;;;;;;4.88;4.45;;;32.80;99.90;;;;;;5090044;28;20197;-77
2023/07/29 12:46:48;;;;;;;5.22;4.72;;;32.30;99.90;;;;;;5091991;28;20687;-78
2023/07/29 12:49:14;;;;;;;4.82;4.53;;;32.60;99.90;;;;;;5085791;28;20709;-81
2023/07/29 12:51:42;;;;;;;5.22;4.80;;;33.10;99.90;;;;;;5093957;28;20232;-91